Mount Auburn, Indiana
Current Conditions -  °F | °C
As of 5:53 AM on Monday 20 Oct 2014 (Local Time) from KMIE Reporting Station
Overcast Overcast  
Wind Chill: 44°   Ceiling: 8500
Heat Index: 49°   Visibility: 10mi
Dew Point: 43°   Wind: 12mph
Humidity: 80%   Direction: 220°SW
Pressure: 29.94"   Gusts: NA
Location:  39.8349°N, 85.156°W
Report Text: KMIE 200953Z 22010KT 10SM OVC085 09/06 A2994 RMK AO2 RAE02B26E38 SLP137 P0000 T00940061
Loading
Personal Weather Stations






























Interactive Weather Map New forecast layout! Learn more

10-Day Weather Forecast

Advertisements
Track Severe Weather on mobile